| time (UTC) | temp F | wind direction | speed MPH | gust MPH | rain 1hr in | rain 24hr in | rain mn in | humidity % | barometer mb |
| 20260504050003 | 48 | 205 | 0.0 | 0.0 | 0.00 | 0.01 | 0.00 | 86 | 1008.7 |
| 20260504045506 | 48 | 205 | 0.0 | 0.0 | 0.00 | 0.01 | 0.00 | 86 | 1008.6 |
| 20260504045004 | 48 | 205 | 0.0 | 0.0 | 0.00 | 0.01 | 0.00 | 86 | 1008.6 |
| 20260504044502 | 48 | 205 | 0.0 | 0.0 | 0.00 | 0.01 | 0.00 | 86 | 1008.8 |
| 20260504043506 | 48 | 205 | 0.0 | 0.0 | 0.00 | 0.01 | 0.00 | 86 | 1008.8 |
| 20260504043006 | 48 | 205 | 0.0 | 0.0 | 0.00 | 0.01 | 0.00 | 85 | 1008.8 |
| 20260504042502 | 48 | 205 | 0.0 | 0.0 | 0.00 | 0.01 | 0.00 | 85 | 1008.8 |
| 20260504042004 | 48 | 205 | 0.0 | 0.0 | 0.00 | 0.01 | 0.00 | 85 | 1008.8 |
| 20260504041004 | 48 | 205 | 0.0 | 0.0 | 0.00 | 0.01 | 0.00 | 85 | 1008.9 |
| 20260504040504 | 48 | 205 | 0.0 | 0.0 | 0.00 | 0.01 | 0.00 | 84 | 1008.8 |
| 20260504040007 | 48 | 205 | 0.0 | 0.0 | 0.00 | 0.01 | 0.00 | 83 | 1008.9 |
| 20260504035503 | 48 | 205 | 0.0 | 0.0 | 0.00 | 0.01 | 0.01 | 83 | 1008.8 |
| 20260504035004 | 48 | 205 | 0.0 | 0.0 | 0.00 | 0.01 | 0.01 | 84 | 1008.9 |
| 20260504034500 | 48 | 205 | 0.0 | 0.0 | 0.00 | 0.01 | 0.01 | 84 | 1008.9 |
| 20260504034005 | 48 | 205 | 0.0 | 0.0 | 0.00 | 0.01 | 0.01 | 84 | 1008.9 |
| 20260504033504 | 48 | 205 | 0.0 | 0.0 | 0.00 | 0.01 | 0.01 | 84 | 1009.0 |
| 20260504033006 | 48 | 205 | 0.0 | 0.0 | 0.00 | 0.01 | 0.01 | 84 | 1008.9 |
| 20260504031505 | 48 | 251 | 0.0 | 0.0 | 0.00 | 0.01 | 0.01 | 84 | 1009.0 |
| 20260504031005 | 48 | 251 | 0.0 | 0.0 | 0.00 | 0.01 | 0.01 | 84 | 1009.2 |
| 20260504030503 | 48 | 251 | 0.0 | 0.0 | 0.00 | 0.01 | 0.01 | 83 | 1009.4 |
| 20260504030004 | 48 | 251 | 0.0 | 0.0 | 0.00 | 0.01 | 0.01 | 83 | 1009.2 |
| 20260504025506 | 48 | 251 | 0.0 | 0.0 | 0.00 | 0.01 | 0.01 | 82 | 1009.2 |
| 20260504025005 | 48 | 251 | 0.0 | 0.0 | 0.00 | 0.01 | 0.01 | 81 | 1009.2 |
| 20260504024506 | 49 | 251 | 0.0 | 0.0 | 0.00 | 0.01 | 0.01 | 81 | 1009.2 |
| 20260504023003 | 49 | 251 | 0.0 | 0.0 | 0.00 | 0.01 | 0.01 | 80 | 1009.3 |
| 20260504022501 | 49 | 251 | 0.0 | 0.0 | 0.01 | 0.01 | 0.01 | 79 | 1009.5 |
| 20260504022004 | 49 | 251 | 0.0 | 0.0 | 0.01 | 0.01 | 0.01 | 79 | 1009.7 |
| 20260504021504 | 49 | 251 | 0.0 | 0.0 | 0.01 | 0.01 | 0.01 | 78 | 1009.9 |
| 20260504021000 | 49 | 251 | 0.0 | 0.0 | 0.01 | 0.01 | 0.01 | 78 | 1009.9 |
| 20260504020007 | 49 | 251 | 0.0 | 0.0 | 0.01 | 0.01 | 0.01 | 77 | 1009.8 |
| 20260504015504 | 49 | 291 | 0.0 | 2.0 | 0.01 | 0.01 | 0.01 | 77 | 1009.9 |
| 20260504015004 | 49 | 267 | 0.0 | 4.0 | 0.01 | 0.01 | 0.01 | 76 | 1010.0 |
| 20260504014500 | 50 | 219 | 1.0 | 7.0 | 0.01 | 0.01 | 0.01 | 76 | 1010.0 |
| 20260504014005 | 50 | 257 | 2.0 | 7.0 | 0.01 | 0.01 | 0.01 | 74 | 1010.1 |
| 20260504013504 | 50 | 236 | 3.0 | 9.0 | 0.01 | 0.01 | 0.01 | 74 | 1010.3 |
| 20260504013004 | 50 | 206 | 3.0 | 9.0 | 0.01 | 0.01 | 0.01 | 72 | 1010.4 |
| 20260504012505 | 51 | 275 | 3.0 | 12.0 | 0.00 | 0.00 | 0.00 | 70 | 1010.4 |
| 20260504012004 | 51 | 271 | 2.0 | 12.0 | 0.00 | 0.00 | 0.00 | 68 | 1010.3 |
| 20260504011003 | 52 | 310 | 2.0 | 9.0 | 0.00 | 0.00 | 0.00 | 66 | 1009.8 |
| 20260504010500 | 52 | 154 | 3.0 | 10.0 | 0.00 | 0.00 | 0.00 | 65 | 1009.7 |
| 20260504010005 | 52 | 286 | 3.0 | 10.0 | 0.00 | 0.00 | 0.00 | 63 | 1009.6 |
| 20260504005500 | 52 | 295 | 3.0 | 10.0 | 0.00 | 0.00 | 0.00 | 63 | 1009.7 |
| 20260504005004 | 52 | 291 | 3.0 | 11.0 | 0.00 | 0.00 | 0.00 | 62 | 1009.7 |
| 20260504004502 | 52 | 264 | 2.0 | 10.0 | 0.00 | 0.00 | 0.00 | 61 | 1009.7 |
| 20260504004005 | 52 | 278 | 1.0 | 7.0 | 0.00 | 0.00 | 0.00 | 62 | 1009.6 |
| 20260504003501 | 53 | 326 | 2.0 | 11.0 | 0.00 | 0.00 | 0.00 | 63 | 1009.4 |
| 20260504003005 | 53 | 280 | 3.0 | 11.0 | 0.00 | 0.00 | 0.00 | 58 | 1009.3 |
| 20260504002005 | 53 | 277 | 3.0 | 19.0 | 0.00 | 0.00 | 0.00 | 58 | 1009.2 |
| 20260504001501 | 53 | 181 | 0.0 | 11.0 | 0.00 | 0.00 | 0.00 | 58 | 1009.1 |
| 20260504001001 | 53 | 112 | 0.0 | 2.0 | 0.00 | 0.00 | 0.00 | 58 | 1008.9 |
| 20260504000459 | 53 | 112 | 0.0 | 2.0 | 0.00 | 0.00 | 0.00 | 55 | 1008.7 |
| 20260504000000 | 53 | 132 | 0.0 | 0.0 | 0.00 | 0.00 | 0.00 | 53 | 1008.7 |
| 20260503234959 | 53 | 85 | 0.0 | 4.0 | 0.00 | 0.00 | 0.00 | 54 | 1008.5 |
| 20260503234500 | 53 | 173 | 0.0 | 4.0 | 0.00 | 0.00 | 0.00 | 52 | 1008.6 |
| 20260503234000 | 54 | 247 | 0.0 | 0.0 | 0.00 | 0.00 | 0.00 | 51 | 1008.8 |
| 20260503233500 | 54 | 247 | 0.0 | 0.0 | 0.00 | 0.00 | 0.00 | 49 | 1008.7 |
| 20260503233002 | 54 | 247 | 0.0 | 1.0 | 0.00 | 0.00 | 0.00 | 49 | 1008.7 |
| 20260503232001 | 54 | 215 | 2.0 | 7.0 | 0.00 | 0.00 | 0.00 | 49 | 1008.9 |
| 20260503231500 | 54 | 198 | 1.0 | 6.0 | 0.00 | 0.00 | 0.00 | 48 | 1009.2 |
| 20260503231001 | 54 | 241 | 2.0 | 8.0 | 0.00 | 0.00 | 0.00 | 48 | 1009.4 |
| 20260503230459 | 54 | 309 | 4.0 | 9.0 | 0.00 | 0.00 | 0.00 | 47 | 1009.6 |
| 20260503224959 | 55 | 111 | 3.0 | 12.0 | 0.00 | 0.00 | 0.00 | 44 | 1009.4 |
| 20260503224004 | 55 | 280 | 2.0 | 10.0 | 0.00 | 0.00 | 0.00 | 44 | 1009.2 |
| 20260503223459 | 55 | 277 | 2.0 | 10.0 | 0.00 | 0.00 | 0.00 | 42 | 1009.1 |
| 20260503222459 | 56 | 280 | 3.0 | 10.0 | 0.00 | 0.00 | 0.00 | 40 | 1009.2 |
| 20260503221459 | 56 | 281 | 1.0 | 4.0 | 0.00 | 0.00 | 0.00 | 43 | 1009.0 |
| 20260503220459 | 56 | 134 | 1.0 | 5.0 | 0.00 | 0.00 | 0.00 | 42 | 1009.0 |
| 20260503220000 | 56 | 193 | 1.0 | 5.0 | 0.00 | 0.00 | 0.00 | 41 | 1009.0 |
| 20260503215500 | 56 | 157 | 2.0 | 5.0 | 0.00 | 0.00 | 0.00 | 43 | 1009.1 |
| 20260503215000 | 56 | 277 | 2.0 | 5.0 | 0.00 | 0.00 | 0.00 | 42 | 1009.1 |
| 20260503214500 | 56 | 137 | 2.0 | 8.0 | 0.00 | 0.00 | 0.00 | 41 | 1009.1 |
| 20260503214000 | 56 | 265 | 1.0 | 8.0 | 0.00 | 0.00 | 0.00 | 41 | 1009.2 |
| 20260503213501 | 56 | 273 | 1.0 | 4.0 | 0.00 | 0.00 | 0.00 | 42 | 1009.2 |
| 20260503213000 | 56 | 256 | 1.0 | 4.0 | 0.00 | 0.00 | 0.00 | 42 | 1009.2 |
| 20260503212500 | 55 | 279 | 1.0 | 5.0 | 0.00 | 0.00 | 0.00 | 45 | 1009.1 |
| 20260503212000 | 55 | 277 | 1.0 | 5.0 | 0.00 | 0.00 | 0.00 | 42 | 1009.1 |
| 20260503211501 | 55 | 250 | 1.0 | 5.0 | 0.00 | 0.00 | 0.00 | 44 | 1009.1 |
| 20260503211004 | 55 | 198 | 2.0 | 7.0 | 0.00 | 0.00 | 0.00 | 47 | 1009.1 |
| 20260503210500 | 55 | 275 | 2.0 | 4.0 | 0.00 | 0.00 | 0.00 | 45 | 1009.2 |
| 20260503210002 | 55 | 272 | 1.0 | 3.0 | 0.00 | 0.00 | 0.00 | 46 | 1009.2 |
| 20260503205504 | 55 | 290 | 1.0 | 4.0 | 0.00 | 0.00 | 0.00 | 48 | 1009.2 |
| 20260503204504 | 55 | 194 | 2.0 | 8.0 | 0.00 | 0.00 | 0.00 | 46 | 1009.3 |
| 20260503204005 | 55 | 169 | 3.0 | 9.0 | 0.00 | 0.00 | 0.00 | 45 | 1009.4 |
| 20260503203504 | 55 | 277 | 2.0 | 9.0 | 0.00 | 0.00 | 0.00 | 44 | 1009.5 |
| 20260503203004 | 56 | 246 | 1.0 | 4.0 | 0.00 | 0.00 | 0.00 | 45 | 1009.5 |
| 20260503202500 | 56 | 168 | 1.0 | 6.0 | 0.00 | 0.00 | 0.00 | 43 | 1009.6 |
| 20260503202003 | 56 | 193 | 1.0 | 6.0 | 0.00 | 0.00 | 0.00 | 42 | 1009.6 |
| 20260503201505 | 56 | 204 | 2.0 | 9.0 | 0.00 | 0.00 | 0.00 | 41 | 1009.8 |
| 20260503201003 | 57 | 275 | 2.0 | 9.0 | 0.00 | 0.00 | 0.00 | 40 | 1009.8 |
| 20260503200504 | 56 | 145 | 2.0 | 5.0 | 0.00 | 0.00 | 0.00 | 39 | 1009.8 |
| 20260503200004 | 56 | 185 | 3.0 | 11.0 | 0.00 | 0.00 | 0.00 | 41 | 1009.9 |
| 20260503195000 | 55 | 296 | 4.0 | 11.0 | 0.00 | 0.00 | 0.00 | 41 | 1010.0 |
| 20260503194501 | 54 | 294 | 2.0 | 10.0 | 0.00 | 0.00 | 0.00 | 41 | 1010.1 |
| 20260503194000 | 54 | 355 | 2.0 | 5.0 | 0.00 | 0.00 | 0.00 | 42 | 1010.1 |
| 20260503193000 | 54 | 55 | 3.0 | 10.0 | 0.00 | 0.00 | 0.00 | 40 | 1010.2 |
| 20260503192500 | 55 | 240 | 3.0 | 10.0 | 0.00 | 0.00 | 0.00 | 41 | 1010.3 |
| 20260503191959 | 55 | 283 | 2.0 | 9.0 | 0.00 | 0.00 | 0.00 | 42 | 1010.2 |
| 20260503191500 | 55 | 321 | 2.0 | 10.0 | 0.00 | 0.00 | 0.00 | 44 | 1010.1 |
| 20260503190959 | 55 | 244 | 2.0 | 10.0 | 0.00 | 0.00 | 0.00 | 42 | 1010.3 |
| 20260503185500 | 56 | 155 | 2.0 | 9.0 | 0.00 | 0.00 | 0.00 | 40 | 1010.3 |
| 20260503185002 | 55 | 261 | 2.0 | 6.0 | 0.00 | 0.00 | 0.00 | 39 | 1010.4 |
| 20260503184500 | 55 | 251 | 2.0 | 11.0 | 0.00 | 0.00 | 0.00 | 40 | 1010.4 |
| 20260503184002 | 56 | 290 | 2.0 | 11.0 | 0.00 | 0.00 | 0.00 | 38 | 1010.4 |
| 20260503183501 | 56 | 136 | 3.0 | 9.0 | 0.00 | 0.00 | 0.00 | 41 | 1010.5 |
| 20260503183000 | 56 | 288 | 4.0 | 11.0 | 0.00 | 0.00 | 0.00 | 41 | 1010.6 |
| 20260503182502 | 55 | 171 | 3.0 | 10.0 | 0.00 | 0.00 | 0.00 | 40 | 1010.6 |
| 20260503181959 | 55 | 129 | 3.0 | 10.0 | 0.00 | 0.00 | 0.00 | 38 | 1010.9 |
| 20260503181500 | 55 | 201 | 3.0 | 10.0 | 0.00 | 0.00 | 0.00 | 39 | 1010.9 |
| 20260503181000 | 55 | 276 | 2.0 | 11.0 | 0.00 | 0.00 | 0.00 | 38 | 1010.9 |
| 20260503180500 | 55 | 289 | 2.0 | 9.0 | 0.00 | 0.00 | 0.00 | 44 | 1011.0 |
| 20260503180001 | 55 | 278 | 2.0 | 8.0 | 0.00 | 0.00 | 0.00 | 39 | 1011.0 |
| 20260503175459 | 55 | 265 | 2.0 | 8.0 | 0.00 | 0.00 | 0.00 | 39 | 1011.1 |
| 20260503175000 | 55 | 292 | 3.0 | 9.0 | 0.00 | 0.00 | 0.00 | 37 | 1011.0 |
| 20260503174502 | 54 | 259 | 3.0 | 10.0 | 0.00 | 0.00 | 0.00 | 39 | 1011.1 |
| 20260503174000 | 54 | 271 | 2.0 | 9.0 | 0.00 | 0.00 | 0.00 | 40 | 1011.0 |
| 20260503173500 | 54 | 222 | 2.0 | 7.0 | 0.00 | 0.00 | 0.00 | 39 | 1011.2 |
| 20260503172500 | 54 | 256 | 3.0 | 9.0 | 0.00 | 0.00 | 0.00 | 37 | 1011.3 |
| 20260503172001 | 54 | 360 | 2.0 | 8.0 | 0.00 | 0.00 | 0.00 | 39 | 1011.3 |
| 20260503171500 | 53 | 315 | 2.0 | 8.0 | 0.00 | 0.00 | 0.00 | 37 | 1011.3 |
| 20260503171001 | 53 | 231 | 2.0 | 9.0 | 0.00 | 0.00 | 0.00 | 43 | 1011.4 |
| 20260503170500 | 53 | 267 | 3.0 | 10.0 | 0.00 | 0.00 | 0.00 | 39 | 1011.5 |
| 20260503151000 | 49 | 286 | 3.0 | 11.0 | 0.00 | 0.00 | 0.00 | 42 | 1013.1 |
| 20260503130501 | 43 | 286 | 3.0 | 6.0 | 0.00 | 0.00 | 0.00 | 64 | 1013.6 |
| 20260503110500 | 36 | 239 | 0.0 | 0.0 | 0.00 | 0.00 | 0.00 | 87 | 1013.1 |
| 20260503090459 | 38 | 255 | 0.0 | 0.0 | 0.00 | 0.00 | 0.00 | 81 | 1012.7 |
| 20260503080959 | 39 | 240 | 0.0 | 1.0 | 0.00 | 0.00 | 0.00 | 81 | 1012.8 |
| 20260503080459 | 39 | 240 | 0.0 | 1.0 | 0.00 | 0.00 | 0.00 | 81 | 1012.8 |
| 20260503072457 | 39 | 244 | 0.0 | 2.0 | 0.00 | 0.00 | 0.00 | 80 | 1012.8 |
| 20260503071457 | 39 | 252 | 0.0 | 2.0 | 0.00 | 0.00 | 0.00 | 81 | 1012.7 |
| 20260503070959 | 39 | 185 | 0.0 | 2.0 | 0.00 | 0.00 | 0.00 | 81 | 1012.7 |
| 20260503070458 | 39 | 254 | 0.0 | 1.0 | 0.00 | 0.00 | 0.00 | 80 | 1012.7 |
| 20260503055000 | 40 | 198 | 0.0 | 1.0 | 0.00 | 0.00 | 0.00 | 81 | 1012.8 |
| 20260503054458 | 40 | 182 | 0.0 | 1.0 | 0.00 | 0.00 | 0.00 | 81 | 1012.9 |
| 20260503053459 | 40 | 185 | 0.0 | 1.0 | 0.00 | 0.00 | 0.00 | 80 | 1013.0 |
| 20260503053000 | 40 | 96 | 0.0 | 0.0 | 0.00 | 0.00 | 0.00 | 80 | 1013.0 |
| 20260503052458 | 40 | 96 | 0.0 | 2.0 | 0.00 | 0.00 | 0.00 | 80 | 1013.0 |
| 20260503051958 | 40 | 221 | 0.0 | 1.0 | 0.00 | 0.00 | 0.00 | 80 | 1013.1 |
| 20260503051457 | 40 | 269 | 0.0 | 2.0 | 0.00 | 0.00 | 0.00 | 80 | 1013.1 |
| 20260503050958 | 40 | 269 | 0.0 | 2.0 | 0.00 | 0.00 | 0.00 | 79 | 1013.1 |
| 20260503050458 | 40 | 269 | 0.0 | 3.0 | 0.00 | 0.00 | 0.00 | 80 | 1013.2 |